Time;durP1;ratioP1;P1;durP2;ratioP2;P2;SDS_P1;SDS_P2;PMS_P1;PMS_P2;Temp;Humidity;BMP_temperature;BMP_pressure;BME280_temperature;BME280_humidity;BME280_pressure;Samples;Min_cycle;Max_cycle;Signal;HPM_P1;HPM_P2
2021/01/28 00:01:21;;;;;;;97.83;41.30;;;;;;;-1.22;75.47;99793.46;124363;1112;24673;-56
2021/01/28 00:03:50;;;;;;;93.78;40.12;;;;;;;-1.24;75.71;99787.63;124517;1112;23018;-55
2021/01/28 00:06:20;;;;;;;93.50;40.47;;;;;;;-1.24;75.67;99779.41;124540;1112;23017;-56
2021/01/28 00:08:49;;;;;;;95.70;39.90;;;;;;;-1.25;75.58;99788.03;124329;1111;23086;-58
2021/01/28 00:11:18;;;;;;;87.82;35.92;;;;;;;-1.26;75.78;99789.23;124496;1111;22988;-55
2021/01/28 00:13:48;;;;;;;87.93;36.43;;;;;;;-1.26;75.65;99794.72;124367;1112;23416;-57
2021/01/28 00:16:17;;;;;;;89.23;37.53;;;;;;;-1.29;75.37;99799.05;124369;1111;23076;-55
2021/01/28 00:18:46;;;;;;;84.23;32.20;;;;;;;-1.30;75.86;99800.22;124506;1110;23071;-55
2021/01/28 00:21:15;;;;;;;83.50;35.50;;;;;;;-1.30;75.58;99808.43;124331;1112;23026;-55
2021/01/28 00:23:44;;;;;;;90.37;37.27;;;;;;;-1.33;75.45;99812.00;124592;1112;23082;-58
2021/01/28 00:26:15;;;;;;;88.07;37.95;;;;;;;-1.34;75.42;99804.96;124512;1111;23086;-58
2021/01/28 00:28:43;;;;;;;;;;;;;;;-1.37;76.23;99797.58;124460;1112;23094;-55
2021/01/28 00:31:12;;;;;;;84.55;34.20;;;;;;;-1.43;76.10;99796.48;124384;1112;21529;-59
2021/01/28 00:33:41;;;;;;;81.30;34.40;;;;;;;-1.44;75.57;99794.13;124308;1112;23251;-55
2021/01/28 00:36:11;;;;;;;80.67;33.67;;;;;;;-1.42;76.08;99791.76;124473;1112;25324;-55
2021/01/28 00:38:41;;;;;;;85.07;35.08;;;;;;;-1.43;75.86;99782.79;124528;1111;24635;-55
2021/01/28 00:41:11;;;;;;;82.27;35.52;;;;;;;-1.42;76.14;99780.81;124410;1112;23084;-60
2021/01/28 00:43:40;;;;;;;85.33;34.93;;;;;;;-1.43;76.33;99790.22;124346;1112;23073;-57
2021/01/28 00:46:10;;;;;;;87.17;36.67;;;;;;;-1.43;76.45;99792.95;124501;1112;23087;-55
2021/01/28 00:48:39;;;;;;;86.70;35.40;;;;;;;-1.44;75.70;99783.97;124395;1111;24670;-57
2021/01/28 00:51:09;;;;;;;81.57;34.63;;;;;;;-1.48;76.02;99788.70;124322;1112;23097;-57
2021/01/28 00:53:38;;;;;;;83.00;32.05;;;;;;;-1.52;76.49;99782.50;124371;1112;23171;-58
2021/01/28 00:56:08;;;;;;;80.75;33.45;;;;;;;-1.52;75.72;99785.23;124390;1112;23009;-56
2021/01/28 00:58:37;;;;;;;81.83;34.67;;;;;;;-1.53;76.36;99778.19;124402;1112;23034;-60
2021/01/28 01:01:06;;;;;;;87.53;35.17;;;;;;;-1.53;76.79;99778.19;124454;1112;23054;-55
2021/01/28 01:03:35;;;;;;;84.17;36.53;;;;;;;-1.53;75.73;99771.96;124551;1112;23014;-56
2021/01/28 01:06:05;;;;;;;89.23;39.13;;;;;;;-1.53;76.18;99772.72;124405;1112;23019;-60
2021/01/28 01:08:34;;;;;;;104.58;45.70;;;;;;;-1.53;76.43;99758.28;124478;1112;23030;-57
2021/01/28 01:11:05;;;;;;;111.70;46.30;;;;;;;-1.53;75.83;99756.30;124387;1112;23199;-55
2021/01/28 01:13:37;;;;;;;119.90;46.45;;;;;;;-1.54;75.85;99753.97;124272;1111;28493;-58
2021/01/28 01:16:08;;;;;;;117.03;46.13;;;;;;;-1.56;76.67;99748.92;124310;1111;27583;-55
2021/01/28 01:18:37;;;;;;;115.27;47.13;;;;;;;-1.58;76.64;99736.82;124416;1111;23151;-58
2021/01/28 01:21:07;;;;;;;118.33;47.00;;;;;;;-1.60;76.32;99734.50;124519;1111;26798;-56
2021/01/28 01:23:36;;;;;;;113.68;45.20;;;;;;;-1.61;76.75;99721.98;124402;1112;23209;-55
2021/01/28 01:26:06;;;;;;;103.20;43.33;;;;;;;-1.62;76.71;99723.19;124699;1112;23017;-58
2021/01/28 01:28:35;;;;;;;104.10;45.77;;;;;;;-1.63;76.19;99727.09;124368;1112;23051;-57
2021/01/28 01:31:04;;;;;;;109.37;49.23;;;;;;;-1.65;76.05;99719.30;124428;1112;26215;-58
2021/01/28 01:33:34;;;;;;;121.97;50.60;;;;;;;-1.66;76.03;99716.98;124368;1112;23216;-54
2021/01/28 01:36:03;;;;;;;112.20;47.10;;;;;;;-1.70;76.77;99710.77;124604;1111;23101;-55
2021/01/28 01:38:32;;;;;;;111.55;46.98;;;;;;;-1.71;76.85;99709.21;124354;1112;23224;-57
2021/01/28 01:41:02;;;;;;;101.23;42.67;;;;;;;-1.73;76.88;99706.11;124341;1112;23145;-55
2021/01/28 01:43:31;;;;;;;101.40;42.05;;;;;;;-1.79;76.07;99699.53;124485;1112;23017;-57
2021/01/28 01:46:05;;;;;;;94.43;41.50;;;;;;;-1.83;76.94;99698.80;124401;1112;23076;-55
2021/01/28 01:48:40;;;;;;;100.25;41.10;;;;;;;-1.84;76.25;99689.81;124466;1112;23027;-57
2021/01/28 01:51:18;;;;;;;93.60;38.03;;;;;;;-1.86;76.33;99685.93;124356;1112;25035;-55
2021/01/28 01:53:52;;;;;;;96.67;39.07;;;;;;;-1.87;76.45;99676.19;124367;1113;26300;-58
2021/01/28 01:56:25;;;;;;;106.33;39.73;;;;;;;-1.89;76.40;99678.55;124511;1112;23090;-58
2021/01/28 01:59:00;;;;;;;95.10;37.13;;;;;;;-1.92;77.12;99682.09;124370;1112;23074;-55
2021/01/28 02:01:32;;;;;;;84.57;31.80;;;;;;;-1.92;76.49;99682.09;124487;1112;23146;-55
2021/01/28 02:04:02;;;;;;;79.00;30.37;;;;;;;-1.94;77.47;99670.78;124426;1112;23481;-57
2021/01/28 02:06:37;;;;;;;79.07;30.37;;;;;;;-1.93;77.26;99669.62;124555;1111;23077;-56
2021/01/28 02:09:09;;;;;;;73.77;29.23;;;;;;;-1.92;77.25;99668.41;124414;1111;23074;-58
2021/01/28 02:11:40;;;;;;;69.70;30.13;;;;;;;-1.93;77.16;99659.45;124464;1112;23425;-55
2021/01/28 02:14:09;;;;;;;;;;;;;;;-1.96;77.17;99659.48;124517;1112;28014;-57
2021/01/28 02:16:47;;;;;;;76.37;31.80;;;;;;;-1.95;77.27;99661.05;124566;1112;25775;-57
2021/01/28 02:19:28;;;;;;;85.63;35.27;;;;;;;-1.94;77.18;99657.11;124377;1112;23222;-58
2021/01/28 02:22:00;;;;;;;80.30;33.00;;;;;;;-1.95;77.42;99647.37;124395;1111;26144;-56
2021/01/28 02:24:42;;;;;;;73.35;30.75;;;;;;;-1.96;77.33;99643.06;124593;1112;23073;-56
2021/01/28 02:27:13;;;;;;;72.73;29.00;;;;;;;-1.99;76.77;99632.95;124367;1112;23226;-58
2021/01/28 02:29:42;;;;;;;75.57;30.72;;;;;;;-2.02;76.95;99633.77;124388;1112;26081;-55
2021/01/28 02:32:11;;;;;;;77.83;31.47;;;;;;;-2.01;77.30;99624.39;124363;1112;26529;-57
2021/01/28 02:34:41;;;;;;;75.47;31.93;;;;;;;-2.03;77.78;99624.02;124363;1112;23094;-57
2021/01/28 02:37:18;;;;;;;69.20;29.20;;;;;;;-2.03;77.44;99616.57;124397;1112;23052;-56
2021/01/28 02:39:47;;;;;;;65.50;29.40;;;;;;;-2.03;76.88;99608.37;124307;1111;23087;-58
2021/01/28 02:42:21;;;;;;;73.83;31.07;;;;;;;-2.02;77.35;99607.20;124220;1112;23231;-58
2021/01/28 02:44:50;;;;;;;77.53;31.73;;;;;;;-2.04;77.07;99606.83;124434;1112;22976;-58
2021/01/28 02:47:21;;;;;;;71.03;28.97;;;;;;;-2.04;76.79;99608.78;124370;1112;23070;-58
2021/01/28 02:49:52;;;;;;;70.27;29.20;;;;;;;-2.04;77.20;99598.63;124409;1112;23080;-56
2021/01/28 02:52:21;;;;;;;67.37;28.27;;;;;;;-2.02;77.78;99592.73;124394;1111;27841;-55
2021/01/28 02:54:51;;;;;;;63.23;26.10;;;;;;;-2.01;76.98;99594.30;124510;1111;23161;-59
2021/01/28 02:57:21;;;;;;;66.40;26.13;;;;;;;-2.03;77.31;99599.41;124404;1112;23033;-58
2021/01/28 02:59:51;;;;;;;62.20;24.00;;;;;;;-2.09;76.77;99604.53;124431;1112;23079;-56
2021/01/28 03:02:21;;;;;;;62.40;24.67;;;;;;;-2.10;77.38;99597.53;124479;1112;24822;-57
2021/01/28 03:04:50;;;;;;;54.93;22.27;;;;;;;-2.11;77.64;99593.23;124468;1112;26401;-55
2021/01/28 03:07:19;;;;;;;58.03;22.67;;;;;;;-2.11;76.99;99584.28;124396;1112;24668;-56
2021/01/28 03:09:48;;;;;;;57.03;23.33;;;;;;;-2.09;77.62;99579.92;124389;1112;23024;-55
2021/01/28 03:12:17;;;;;;;57.70;23.83;;;;;;;-2.10;76.92;99577.61;124573;1112;23030;-59
2021/01/28 03:14:46;;;;;;;55.73;23.87;;;;;;;-2.10;77.01;99585.81;124519;1112;23071;-57
2021/01/28 03:17:15;;;;;;;55.53;23.30;;;;;;;-2.09;77.13;99585.39;124393;1112;23017;-55
2021/01/28 03:19:44;;;;;;;56.23;22.93;;;;;;;-2.10;77.32;99583.08;124396;1112;23070;-56
2021/01/28 03:22:14;;;;;;;59.70;23.80;;;;;;;-2.08;77.47;99578.75;124381;1111;27893;-58
2021/01/28 03:24:43;;;;;;;57.03;23.10;;;;;;;-2.06;77.29;99573.64;124533;1112;26284;-58
2021/01/28 03:27:13;;;;;;;69.40;27.32;;;;;;;-2.07;77.67;99565.86;124466;1112;23087;-57
2021/01/28 03:29:42;;;;;;;63.00;24.50;;;;;;;-2.07;77.27;99574.82;124414;1111;26047;-55
2021/01/28 03:32:12;;;;;;;62.37;24.47;;;;;;;-2.05;77.57;99579.90;124357;1112;23225;-57
2021/01/28 03:34:40;;;;;;;53.10;22.00;;;;;;;-2.03;77.70;99574.80;124476;1112;23150;-55
2021/01/28 03:37:10;;;;;;;57.35;21.10;;;;;;;-2.02;77.44;99573.59;124420;1112;26082;-56
2021/01/28 03:39:41;;;;;;;47.03;19.53;;;;;;;-2.01;77.55;99578.67;124549;1111;23017;-57
2021/01/28 03:42:11;;;;;;;52.57;21.27;;;;;;;-1.98;78.07;99571.59;124344;1111;26025;-60
2021/01/28 03:44:41;;;;;;;51.40;19.40;;;;;;;-1.95;77.84;99568.05;124372;1112;23031;-57
2021/01/28 03:47:10;;;;;;;45.97;19.37;;;;;;;-1.94;77.87;99564.89;124397;1112;23226;-55
2021/01/28 03:49:39;;;;;;;45.53;18.70;;;;;;;-1.92;78.41;99567.98;124395;1112;23184;-57
2021/01/28 03:52:08;;;;;;;43.83;18.00;;;;;;;-1.91;78.38;99564.08;124368;1112;23094;-56
2021/01/28 03:54:40;;;;;;;41.03;16.53;;;;;;;-1.89;78.31;99553.50;124281;1112;23030;-55
2021/01/28 03:57:09;;;;;;;37.20;16.13;;;;;;;-1.85;78.69;99556.17;125236;1112;23199;-57
2021/01/28 03:59:38;;;;;;;41.00;16.40;;;;;;;-1.84;78.30;99544.03;124299;1112;23067;-55
2021/01/28 04:02:07;;;;;;;43.87;17.90;;;;;;;-1.81;78.04;99532.28;124431;1111;23071;-55
2021/01/28 04:04:36;;;;;;;38.60;15.27;;;;;;;-1.77;78.86;99531.05;124394;1112;24128;-56
2021/01/28 04:07:05;;;;;;;40.90;15.40;;;;;;;-1.73;78.44;99522.77;124432;1111;23024;-55
2021/01/28 04:09:35;;;;;;;38.70;15.03;;;;;;;-1.72;78.60;99505.18;124371;1112;23204;-57
2021/01/28 04:12:05;;;;;;;41.90;16.85;;;;;;;-1.70;78.59;99497.33;124383;1113;26474;-59
2021/01/28 04:14:35;;;;;;;36.90;14.80;;;;;;;-1.69;79.09;99496.13;124492;1113;27422;-56
2021/01/28 04:17:04;;;;;;;37.67;14.40;;;;;;;-1.69;78.44;99488.70;124357;1111;27753;-59
2021/01/28 04:19:33;;;;;;;37.70;14.43;;;;;;;-1.68;78.50;99481.27;124509;1111;23372;-56
2021/01/28 04:22:03;;;;;;;35.43;13.33;;;;;;;-1.66;78.47;99476.16;124396;1112;23030;-58
2021/01/28 04:24:32;;;;;;;36.17;13.80;;;;;;;-1.62;78.84;99473.36;124319;1112;24695;-55
2021/01/28 04:27:01;;;;;;;34.90;13.28;;;;;;;-1.61;79.29;99466.70;124258;1112;23011;-55
2021/01/28 04:29:30;;;;;;;36.53;15.07;;;;;;;-1.58;78.89;99457.65;124387;1111;23010;-57
2021/01/28 04:31:59;;;;;;;35.45;15.05;;;;;;;-1.56;79.36;99464.27;124342;1112;26444;-57
2021/01/28 04:34:28;;;;;;;31.97;12.93;;;;;;;-1.52;79.14;99467.71;124313;1112;26191;-55
2021/01/28 04:36:57;;;;;;;31.37;13.27;;;;;;;-1.47;78.76;99474.68;124373;1112;23026;-57
2021/01/28 04:39:26;;;;;;;34.97;12.80;;;;;;;-1.47;78.90;99467.25;124288;1112;23007;-56
2021/01/28 04:41:57;;;;;;;35.00;11.97;;;;;;;-1.45;79.44;99459.39;124383;1110;23069;-58
2021/01/28 04:44:28;;;;;;;36.73;13.63;;;;;;;-1.43;78.75;99465.22;124410;1112;23010;-56
2021/01/28 04:46:57;;;;;;;36.03;14.27;;;;;;;-1.41;79.51;99473.80;124424;1111;23063;-57
2021/01/28 04:49:29;;;;;;;44.73;19.07;;;;;;;-1.40;78.90;99472.59;124532;1111;23015;-55
2021/01/28 04:52:04;;;;;;;46.13;18.87;;;;;;;-1.39;79.15;99468.67;124273;1112;23076;-58
2021/01/28 04:54:35;;;;;;;48.23;17.53;;;;;;;-1.37;79.48;99454.56;124462;1112;22983;-57
2021/01/28 04:57:09;;;;;;;40.83;15.63;;;;;;;-1.36;79.25;99448.66;124347;1111;27573;-59
2021/01/28 04:59:42;;;;;;;41.95;15.70;;;;;;;-1.34;79.12;99445.49;124377;1111;27499;-56
2021/01/28 05:02:19;;;;;;;43.30;15.17;;;;;;;-1.32;79.33;99437.63;124415;1112;26022;-58
2021/01/28 05:04:52;;;;;;;35.97;14.47;;;;;;;-1.29;79.35;99445.80;124453;1111;23019;-57
2021/01/28 05:07:25;;;;;;;33.13;14.03;;;;;;;-1.27;79.27;99437.94;124380;1112;23071;-57
2021/01/28 05:10:12;;;;;;;39.40;14.90;;;;;;;-1.23;79.26;99438.66;124425;1111;26067;-54
2021/01/28 05:12:41;;;;;;;35.80;14.03;;;;;;;-1.20;79.22;99426.84;124578;1111;23083;-55
2021/01/28 05:15:17;;;;;;;38.95;14.50;;;;;;;-1.16;78.83;99415.84;124420;1111;23083;-55
2021/01/28 05:17:58;;;;;;;33.80;14.10;;;;;;;-1.13;78.90;99417.73;124495;1111;26456;-58
2021/01/28 05:20:29;;;;;;;38.93;14.70;;;;;;;-1.12;79.03;99414.56;124537;1111;23008;-59
2021/01/28 05:23:02;;;;;;;43.07;19.27;;;;;;;-1.10;79.03;99406.72;124389;1111;23047;-57
2021/01/28 05:25:38;;;;;;;55.93;22.83;;;;;;;-1.06;79.19;99414.86;124432;1112;27364;-56
2021/01/28 05:28:24;;;;;;;74.13;30.37;;;;;;;-1.04;79.37;99410.52;124467;1112;27521;-57
2021/01/28 05:30:54;;;;;;;87.90;38.57;;;;;;;-1.01;79.98;99406.14;124428;1111;27481;-57
2021/01/28 05:33:32;;;;;;;91.07;40.90;;;;;;;-0.98;79.80;99411.57;124451;1112;23070;-57
2021/01/28 05:36:07;;;;;;;85.87;38.53;;;;;;;-0.97;79.45;99407.63;124503;1112;25653;-56
2021/01/28 05:38:39;;;;;;;59.37;27.73;;;;;;;-0.95;79.15;99402.49;124476;1111;23068;-57
2021/01/28 05:41:12;;;;;;;51.27;20.77;;;;;;;-0.93;79.22;99396.58;124231;1111;23094;-58
2021/01/28 05:43:43;;;;;;;44.07;17.37;;;;;;;-0.91;79.43;99403.19;124359;1112;23086;-58
2021/01/28 05:46:19;;;;;;;42.00;18.07;;;;;;;-0.90;79.30;99399.27;124240;1112;23090;-57
2021/01/28 05:49:04;;;;;;;40.63;15.93;;;;;;;-0.87;79.51;99392.93;124257;1112;23087;-55
2021/01/28 05:51:49;;;;;;;34.70;15.43;;;;;;;-0.84;79.89;99388.58;124494;1112;23081;-55
2021/01/28 05:54:21;;;;;;;39.03;15.93;;;;;;;-0.82;80.14;99383.45;124448;1112;23016;-59
2021/01/28 05:57:03;;;;;;;37.67;14.17;;;;;;;-0.78;79.90;99386.89;124457;1112;23074;-55
2021/01/28 05:59:42;;;;;;;33.60;15.50;;;;;;;-0.77;79.93;99393.15;124440;1111;23126;-56
2021/01/28 06:02:34;;;;;;;34.60;15.03;;;;;;;-0.72;79.44;99392.66;124229;1112;23003;-58
2021/01/28 06:05:16;;;;;;;39.00;14.70;;;;;;;-0.69;79.39;99383.58;124227;1111;28255;-56
2021/01/28 06:08:14;;;;;;;37.43;14.57;;;;;;;-0.67;80.20;99376.48;124353;1111;23158;-56
2021/01/28 06:11:17;;;;;;;35.40;14.37;;;;;;;-0.64;79.75;99370.14;124253;1112;25683;-58
2021/01/28 06:14:30;;;;;;;38.60;14.07;;;;;;;-0.58;80.09;99367.69;124943;1112;23037;-58
2021/01/28 06:17:16;;;;;;;39.17;14.67;;;;;;;-0.57;79.73;99361.77;124110;1112;27530;-58
2021/01/28 06:20:00;;;;;;;36.70;14.13;;;;;;;-0.53;79.63;99367.16;124229;1112;26076;-58
2021/01/28 06:22:41;;;;;;;36.83;14.90;;;;;;;-0.48;79.99;99361.19;124109;1112;23011;-55
2021/01/28 06:25:33;;;;;;;33.10;13.60;;;;;;;-0.47;79.90;99357.23;124105;1112;23090;-57
2021/01/28 06:28:24;;;;;;;36.03;13.90;;;;;;;-0.46;80.08;99361.53;124065;1113;23101;-56
2021/01/28 06:31:11;;;;;;;39.50;15.63;;;;;;;-0.44;79.97;99361.88;124188;1112;26955;-59
2021/01/28 06:33:56;;;;;;;46.63;16.03;;;;;;;-0.43;80.23;99361.45;124168;1112;23077;-58
2021/01/28 06:36:48;;;;;;;36.70;15.10;;;;;;;-0.39;79.75;99361.36;124162;1112;23056;-56
2021/01/28 06:39:30;;;;;;;36.73;13.57;;;;;;;-0.37;79.90;99350.73;123985;1112;23034;-57
2021/01/28 06:42:09;;;;;;;38.60;14.73;;;;;;;-0.34;80.29;99344.41;124151;1112;27888;-56
2021/01/28 06:44:44;;;;;;;35.47;14.30;;;;;;;-0.32;79.99;99347.50;124137;1115;23077;-58
2021/01/28 06:47:17;;;;;;;41.95;17.00;;;;;;;-0.30;80.24;99342.36;124135;1112;27792;-57
2021/01/28 06:49:55;;;;;;;40.60;15.10;;;;;;;-0.27;79.76;99344.26;124284;1112;23261;-58
2021/01/28 06:52:36;;;;;;;32.13;13.73;;;;;;;-0.24;80.22;99343.39;124384;1112;26025;-58
2021/01/28 06:55:11;;;;;;;36.83;14.57;;;;;;;-0.22;80.62;99343.73;124329;1112;23078;-58
2021/01/28 06:57:46;;;;;;;30.63;13.70;;;;;;;-0.19;79.89;99331.91;124217;1111;27807;-58
2021/01/28 07:00:33;;;;;;;34.83;13.07;;;;;;;-0.16;79.90;99320.84;124003;1111;23225;-56
2021/01/28 07:03:12;;;;;;;31.67;14.30;;;;;;;-0.13;79.97;99316.48;124335;1112;23030;-59
2021/01/28 07:06:05;;;;;;;36.10;14.05;;;;;;;-0.10;80.38;99315.61;124243;1112;23154;-56
2021/01/28 07:08:58;;;;;;;35.30;13.85;;;;;;;-0.07;80.06;99315.54;124133;1112;23078;-58
2021/01/28 07:11:36;;;;;;;34.83;13.20;;;;;;;-0.02;79.99;99319.72;124224;1112;23232;-56
2021/01/28 07:14:07;;;;;;;33.90;13.80;;;;;;;-0.01;80.68;99315.78;124310;1111;24742;-57
2021/01/28 07:16:43;;;;;;;31.35;12.25;;;;;;;0.03;80.41;99318.43;124285;1112;24658;-56
2021/01/28 07:19:20;;;;;;;35.80;13.20;;;;;;;0.05;80.12;99308.58;124298;1112;22983;-56
2021/01/28 07:21:51;;;;;;;35.77;14.00;;;;;;;0.07;80.53;99311.66;124485;1111;26218;-58
2021/01/28 07:24:30;;;;;;;31.47;12.47;;;;;;;0.10;80.23;99310.03;124294;1111;23151;-58
2021/01/28 07:27:02;;;;;;;29.37;11.90;;;;;;;0.11;80.45;99303.33;124394;1112;26017;-58
2021/01/28 07:30:00;;;;;;;32.00;12.60;;;;;;;0.13;80.40;99300.92;124243;1112;23232;-59
2021/01/28 07:32:55;;;;;;;35.30;13.85;;;;;;;0.16;80.91;99305.56;124776;1112;23084;-57
2021/01/28 07:35:42;;;;;;;36.25;14.65;;;;;;;0.19;80.55;99296.48;124183;1110;23074;-55
2021/01/28 07:38:46;;;;;;;34.73;13.80;;;;;;;0.20;80.92;99293.30;124427;1112;27364;-57
2021/01/28 07:41:51;;;;;;;29.70;12.05;;;;;;;0.25;81.25;99292.00;124202;1112;23091;-59
2021/01/28 07:44:50;;;;;;;30.80;13.00;;;;;;;0.26;80.93;99280.58;124289;1111;23219;-61
2021/01/28 07:47:53;;;;;;;30.33;10.70;;;;;;;0.29;81.06;99276.95;124368;1112;26081;-59
2021/01/28 07:50:31;;;;;;;29.87;11.30;;;;;;;0.31;80.47;99263.56;124300;1111;23032;-59
2021/01/28 07:53:37;;;;;;;28.07;10.83;;;;;;;0.34;80.86;99268.20;124069;1110;26090;-58
2021/01/28 07:56:45;;;;;;;33.33;12.57;;;;;;;0.38;80.99;99274.37;124190;1112;22990;-59
2021/01/28 07:59:21;;;;;;;33.20;12.00;;;;;;;0.41;80.96;99273.52;124425;1110;24697;-57
2021/01/28 08:01:52;;;;;;;26.23;10.77;;;;;;;0.43;80.75;99268.36;124180;1110;22984;-60
2021/01/28 08:04:30;;;;;;;26.43;10.20;;;;;;;0.45;81.42;99257.71;123984;1111;26047;-59
2021/01/28 08:07:04;;;;;;;27.13;10.33;;;;;;;0.47;81.45;99260.80;124556;1112;23027;-58
2021/01/28 08:09:46;;;;;;;29.03;10.97;;;;;;;0.47;80.80;99260.80;124218;1111;23070;-58
2021/01/28 08:12:22;;;;;;;26.07;9.90;;;;;;;0.50;81.16;99257.16;125189;1111;26073;-58
2021/01/28 08:14:53;;;;;;;28.77;10.03;;;;;;;0.51;81.51;99258.72;124478;1112;23077;-57
2021/01/28 08:17:28;;;;;;;23.17;9.47;;;;;;;0.54;81.45;99251.56;124295;1111;23168;-57
2021/01/28 08:20:23;;;;;;;31.53;12.17;;;;;;;0.56;81.26;99246.43;124271;1112;28716;-58
2021/01/28 08:22:55;;;;;;;22.63;9.37;;;;;;;0.59;81.56;99237.30;124421;1112;27380;-58
2021/01/28 08:25:27;;;;;;;25.93;10.27;;;;;;;0.60;80.99;99242.36;124237;1111;23087;-56
2021/01/28 08:28:05;;;;;;;27.10;10.03;;;;;;;0.63;81.23;99248.95;124094;1111;23231;-59
2021/01/28 08:30:35;;;;;;;27.13;11.33;;;;;;;0.65;81.66;99243.80;125330;1111;23020;-58
2021/01/28 08:33:06;;;;;;;24.73;9.73;;;;;;;0.68;81.64;99242.94;124232;1112;23015;-59
2021/01/28 08:35:41;;;;;;;31.35;12.65;;;;;;;0.70;81.68;99246.02;124366;1111;23225;-58
2021/01/28 08:38:17;;;;;;;31.20;11.65;;;;;;;0.72;81.05;99238.86;124187;1112;28249;-56
2021/01/28 08:40:57;;;;;;;29.13;11.83;;;;;;;0.76;81.56;99230.53;124413;1112;23007;-58
2021/01/28 08:43:26;;;;;;;23.92;8.83;;;;;;;0.80;80.88;99231.98;124228;1111;25917;-59
2021/01/28 08:46:05;;;;;;;28.95;11.05;;;;;;;0.83;80.97;99229.56;125178;1112;23062;-58
2021/01/28 08:48:35;;;;;;;25.07;9.53;;;;;;;0.86;81.19;99223.17;124185;1112;27484;-59
2021/01/28 08:51:17;;;;;;;27.95;10.30;;;;;;;0.87;81.56;99214.48;124273;1111;23073;-57
2021/01/28 08:53:59;;;;;;;26.37;10.20;;;;;;;0.89;81.10;99203.83;124456;1111;23219;-59
2021/01/28 08:56:34;;;;;;;27.90;9.70;;;;;;;0.93;81.41;99207.27;124547;1111;23082;-58
2021/01/28 08:59:07;;;;;;;27.57;9.77;;;;;;;0.96;81.48;99200.09;124882;1111;23219;-59
2021/01/28 09:01:40;;;;;;;27.40;10.77;;;;;;;0.97;81.10;99196.93;124683;1111;28586;-58
2021/01/28 09:04:14;;;;;;;23.37;9.53;;;;;;;1.00;81.37;99192.52;124556;1112;23086;-58
2021/01/28 09:06:46;;;;;;;30.23;13.63;;;;;;;1.03;81.36;99188.89;124473;1112;26232;-58
2021/01/28 09:09:23;;;;;;;29.23;12.03;;;;;;;1.06;80.85;99185.25;124422;1112;26736;-61
2021/01/28 09:12:14;;;;;;;31.13;12.30;;;;;;;1.09;81.23;99185.16;124621;1112;23199;-57
2021/01/28 09:14:43;;;;;;;33.45;14.05;;;;;;;1.14;80.84;99167.36;124305;1112;23219;-60
2021/01/28 09:17:24;;;;;;;29.87;12.27;;;;;;;1.16;81.16;99168.43;125386;1111;23081;-57
2021/01/28 09:19:59;;;;;;;33.40;13.83;;;;;;;1.19;80.85;99172.28;124505;1112;23226;-58
2021/01/28 09:22:34;;;;;;;28.33;10.73;;;;;;;1.23;80.83;99175.69;125529;1111;23077;-58
2021/01/28 09:25:14;;;;;;;31.90;11.30;;;;;;;1.27;80.96;99168.09;124465;1111;23091;-57
2021/01/28 09:27:44;;;;;;;31.10;11.35;;;;;;;1.31;81.26;99157.75;124488;1111;23118;-57
2021/01/28 09:30:21;;;;;;;30.50;11.43;;;;;;;1.32;81.18;99157.32;124477;1112;23261;-58
2021/01/28 09:32:51;;;;;;;28.37;10.40;;;;;;;1.36;81.03;99159.95;124473;1111;23184;-58
2021/01/28 09:35:23;;;;;;;29.15;10.88;;;;;;;1.38;80.57;99161.05;124209;1111;23098;-59
2021/01/28 09:38:06;;;;;;;24.27;9.37;;;;;;;1.40;80.36;99163.34;124281;1112;23015;-58
2021/01/28 09:40:39;;;;;;;24.37;8.73;;;;;;;1.42;80.52;99156.20;124317;1112;23070;-58
2021/01/28 09:43:23;;;;;;;28.67;11.20;;;;;;;1.46;80.30;99158.82;124138;1111;26108;-58
2021/01/28 09:46:11;;;;;;;33.80;11.10;;;;;;;1.49;80.21;99146.95;124700;1112;23221;-57
2021/01/28 09:48:40;;;;;;;26.73;9.30;;;;;;;1.52;80.50;99143.30;124313;1111;27626;-58
2021/01/28 09:51:12;;;;;;;26.10;10.00;;;;;;;1.55;80.32;99143.16;124293;1111;23277;-58
2021/01/28 09:53:59;;;;;;;28.45;10.20;;;;;;;1.58;80.12;99145.03;125359;1111;23061;-58
2021/01/28 09:56:29;;;;;;;25.87;8.93;;;;;;;1.61;80.82;99133.13;125243;1111;23193;-57
2021/01/28 09:58:58;;;;;;;29.23;10.67;;;;;;;1.65;80.66;99144.03;127096;1111;23086;-58
2021/01/28 10:01:28;;;;;;;25.57;9.80;;;;;;;1.69;80.54;99138.40;125014;1112;23091;-58
2021/01/28 10:03:57;;;;;;;26.35;9.30;;;;;;;1.74;80.31;99140.59;124675;1110;23077;-57
2021/01/28 10:06:26;;;;;;;31.37;12.10;;;;;;;1.78;79.83;99130.23;124247;1112;28066;-58
2021/01/28 10:08:55;;;;;;;28.30;10.93;;;;;;;1.83;80.31;99132.40;124533;1112;23195;-58
2021/01/28 10:11:25;;;;;;;30.10;11.13;;;;;;;1.86;80.16;99129.54;124339;1112;22990;-58
2021/01/28 10:13:54;;;;;;;26.77;9.88;;;;;;;1.93;79.69;99128.50;124476;1112;26711;-59
2021/01/28 10:16:24;;;;;;;25.37;9.00;;;;;;;1.97;80.16;99121.66;124977;1111;22999;-58
2021/01/28 10:18:53;;;;;;;23.67;8.70;;;;;;;2.01;79.75;99116.79;124246;1112;26032;-58
2021/01/28 10:21:22;;;;;;;24.53;8.97;;;;;;;2.05;79.40;99120.18;124279;1112;23228;-57
2021/01/28 10:23:52;;;;;;;24.75;8.90;;;;;;;2.06;79.89;99113.47;124584;1112;23073;-58
2021/01/28 10:26:22;;;;;;;26.52;8.58;;;;;;;2.07;79.54;99114.24;124490;1112;23070;-58
2021/01/28 10:28:51;;;;;;;24.60;8.08;;;;;;;2.11;79.68;99117.63;124196;1112;23073;-58
2021/01/28 10:31:20;;;;;;;22.03;7.57;;;;;;;2.11;78.97;99112.88;124393;1110;27761;-58
2021/01/28 10:33:51;;;;;;;24.03;9.20;;;;;;;2.14;79.16;99109.23;124734;1112;23072;-59
2021/01/28 10:36:20;;;;;;;22.50;8.43;;;;;;;2.18;79.51;99098.09;125150;1112;23038;-61
2021/01/28 10:38:49;;;;;;;22.40;9.20;;;;;;;2.20;79.56;99101.93;124725;1112;23151;-60
2021/01/28 10:41:19;;;;;;;23.17;8.13;;;;;;;2.22;78.81;99095.97;124672;1110;23050;-60
2021/01/28 10:43:48;;;;;;;22.83;8.70;;;;;;;2.24;79.46;99094.30;124866;1111;26462;-60
2021/01/28 10:46:19;;;;;;;23.67;9.00;;;;;;;2.27;79.47;99089.89;124984;1112;23024;-59
2021/01/28 10:48:48;;;;;;;22.77;9.30;;;;;;;2.29;79.09;99090.98;124906;1112;23012;-60
2021/01/28 10:51:18;;;;;;;23.30;8.47;;;;;;;2.31;79.00;99080.28;124910;1110;23027;-58
2021/01/28 10:53:47;;;;;;;21.40;8.17;;;;;;;2.33;79.25;99077.84;125081;1112;23100;-59
2021/01/28 10:56:16;;;;;;;22.63;8.93;;;;;;;2.36;79.27;99065.13;124957;1112;23047;-60
2021/01/28 10:58:45;;;;;;;23.57;9.73;;;;;;;2.39;78.83;99067.77;124822;1110;23030;-59
2021/01/28 11:01:15;;;;;;;22.57;8.83;;;;;;;2.42;79.07;99064.09;124912;1111;23018;-58
2021/01/28 11:03:44;;;;;;;25.43;9.18;;;;;;;2.46;79.01;99061.22;124885;1112;23324;-60
2021/01/28 11:06:14;;;;;;;24.73;9.70;;;;;;;2.50;79.00;99050.06;124955;1110;27371;-58
2021/01/28 11:08:45;;;;;;;29.80;10.70;;;;;;;2.55;78.75;99052.20;125510;1110;23245;-58
2021/01/28 11:11:16;;;;;;;23.07;8.30;;;;;;;2.58;78.64;99048.55;124649;1111;23158;-58
2021/01/28 11:13:47;;;;;;;24.50;9.20;;;;;;;2.61;78.87;99044.91;124898;1111;23219;-59
2021/01/28 11:16:16;;;;;;;25.37;9.80;;;;;;;2.62;78.30;99038.16;125505;1111;23073;-59
2021/01/28 11:18:45;;;;;;;23.50;9.43;;;;;;;2.65;79.01;99031.75;124807;1111;23026;-57
2021/01/28 11:21:14;;;;;;;25.17;9.70;;;;;;;2.68;78.95;99025.32;124726;1111;24833;-58
2021/01/28 11:23:43;;;;;;;20.97;8.47;;;;;;;2.70;78.32;99028.38;125083;1111;23022;-58
2021/01/28 11:26:12;;;;;;;24.20;9.73;;;;;;;2.72;78.51;99021.20;124775;1112;23041;-58
2021/01/28 11:28:41;;;;;;;29.17;10.67;;;;;;;2.72;78.58;99020.43;124933;1112;23017;-57
2021/01/28 11:31:10;;;;;;;29.13;10.67;;;;;;;2.73;78.62;99019.97;124695;1111;23091;-60
2021/01/28 11:33:39;;;;;;;29.00;11.03;;;;;;;2.72;78.46;99026.72;124601;1110;23464;-60
2021/01/28 11:36:09;;;;;;;30.13;11.57;;;;;;;2.74;78.41;99034.52;124595;1112;23209;-61
2021/01/28 11:38:38;;;;;;;26.00;9.57;;;;;;;2.75;78.26;99036.06;124578;1112;23022;-58
2021/01/28 11:41:07;;;;;;;25.10;10.57;;;;;;;2.75;78.70;99022.29;124779;1112;23022;-58
2021/01/28 11:43:36;;;;;;;25.05;9.85;;;;;;;2.74;78.25;99029.78;124723;1111;23025;-60
2021/01/28 11:46:06;;;;;;;26.53;9.07;;;;;;;2.74;78.65;99017.98;124907;1112;27053;-61